sensor_id;sensor_type;location;lat;lon;timestamp;temperature;humidity
46932;DHT22;32670;51.464;11.964;2022-12-07T00:00:53;23.40;42.50
46932;DHT22;32670;51.464;11.964;2022-12-07T00:03:18;23.40;42.60
46932;DHT22;32670;51.464;11.964;2022-12-07T00:05:44;23.50;42.50
46932;DHT22;32670;51.464;11.964;2022-12-07T00:08:09;23.40;42.50
46932;DHT22;32670;51.464;11.964;2022-12-07T00:10:35;23.40;42.50
46932;DHT22;32670;51.464;11.964;2022-12-07T00:13:00;23.50;42.50
46932;DHT22;32670;51.464;11.964;2022-12-07T00:15:26;23.40;42.40
46932;DHT22;32670;51.464;11.964;2022-12-07T00:17:51;23.40;42.40
46932;DHT22;32670;51.464;11.964;2022-12-07T00:20:17;23.40;42.40
46932;DHT22;32670;51.464;11.964;2022-12-07T00:22:42;23.40;42.30
46932;DHT22;32670;51.464;11.964;2022-12-07T00:25:08;23.40;42.40
46932;DHT22;32670;51.464;11.964;2022-12-07T00:27:33;23.40;42.30
46932;DHT22;32670;51.464;11.964;2022-12-07T00:29:59;23.40;42.30
46932;DHT22;32670;51.464;11.964;2022-12-07T00:32:24;23.40;42.30
46932;DHT22;32670;51.464;11.964;2022-12-07T00:34:50;23.40;42.20
46932;DHT22;32670;51.464;11.964;2022-12-07T00:37:15;23.40;42.20
46932;DHT22;32670;51.464;11.964;2022-12-07T00:39:41;23.40;42.20
46932;DHT22;32670;51.464;11.964;2022-12-07T00:42:06;23.40;42.20
46932;DHT22;32670;51.464;11.964;2022-12-07T00:44:32;23.40;42.20
46932;DHT22;32670;51.464;11.964;2022-12-07T00:46:57;23.40;42.10
46932;DHT22;32670;51.464;11.964;2022-12-07T00:49:23;23.40;42.10
46932;DHT22;32670;51.464;11.964;2022-12-07T00:51:49;23.40;42.20
46932;DHT22;32670;51.464;11.964;2022-12-07T00:54:14;23.40;42.10
46932;DHT22;32670;51.464;11.964;2022-12-07T00:56:40;23.40;42.10
46932;DHT22;32670;51.464;11.964;2022-12-07T00:59:06;23.40;42.10
46932;DHT22;32670;51.464;11.964;2022-12-07T01:01:35;23.40;42.00
46932;DHT22;32670;51.464;11.964;2022-12-07T01:04:02;23.40;42.00
46932;DHT22;32670;51.464;11.964;2022-12-07T01:06:28;23.40;42.00
46932;DHT22;32670;51.464;11.964;2022-12-07T01:08:54;23.40;42.00
46932;DHT22;32670;51.464;11.964;2022-12-07T01:11:23;23.40;42.00
46932;DHT22;32670;51.464;11.964;2022-12-07T01:13:53;23.40;41.90
46932;DHT22;32670;51.464;11.964;2022-12-07T01:16:20;23.40;42.20
46932;DHT22;32670;51.464;11.964;2022-12-07T01:18:48;23.40;42.00
46932;DHT22;32670;51.464;11.964;2022-12-07T01:21:19;23.40;41.90
46932;DHT22;32670;51.464;11.964;2022-12-07T01:23:48;23.40;42.00
46932;DHT22;32670;51.464;11.964;2022-12-07T01:26:17;23.40;41.90
46932;DHT22;32670;51.464;11.964;2022-12-07T01:28:43;23.40;41.90
46932;DHT22;32670;51.464;11.964;2022-12-07T01:31:12;23.40;41.90
46932;DHT22;32670;51.464;11.964;2022-12-07T01:33:40;23.40;41.80
46932;DHT22;32670;51.464;11.964;2022-12-07T01:36:17;23.40;41.80
46932;DHT22;32670;51.464;11.964;2022-12-07T01:38:44;23.40;41.80
46932;DHT22;32670;51.464;11.964;2022-12-07T01:41:11;23.40;41.80
46932;DHT22;32670;51.464;11.964;2022-12-07T01:43:36;23.40;41.80
46932;DHT22;32670;51.464;11.964;2022-12-07T01:46:04;23.40;41.80
46932;DHT22;32670;51.464;11.964;2022-12-07T01:48:41;23.40;41.70
46932;DHT22;32670;51.464;11.964;2022-12-07T01:51:12;23.40;41.70
46932;DHT22;32670;51.464;11.964;2022-12-07T01:53:42;23.40;41.70
46932;DHT22;32670;51.464;11.964;2022-12-07T01:56:10;23.40;41.70
46932;DHT22;32670;51.464;11.964;2022-12-07T01:58:40;23.40;41.70
46932;DHT22;32670;51.464;11.964;2022-12-07T02:01:05;23.40;41.70
46932;DHT22;32670;51.464;11.964;2022-12-07T02:03:36;23.40;41.70
46932;DHT22;32670;51.464;11.964;2022-12-07T02:06:04;23.40;41.60
46932;DHT22;32670;51.464;11.964;2022-12-07T02:08:31;23.40;41.60
46932;DHT22;32670;51.464;11.964;2022-12-07T02:10:57;23.40;41.60
46932;DHT22;32670;51.464;11.964;2022-12-07T02:13:24;23.40;41.50
46932;DHT22;32670;51.464;11.964;2022-12-07T02:21:39;23.40;41.60
46932;DHT22;32670;51.464;11.964;2022-12-07T02:27:01;23.40;41.50
46932;DHT22;32670;51.464;11.964;2022-12-07T02:29:56;23.40;41.50
46932;DHT22;32670;51.464;11.964;2022-12-07T02:38:01;23.40;41.40
46932;DHT22;32670;51.464;11.964;2022-12-07T02:40:39;23.40;41.50
46932;DHT22;32670;51.464;11.964;2022-12-07T02:45:39;23.40;41.40
46932;DHT22;32670;51.464;11.964;2022-12-07T02:48:07;23.40;41.40
46932;DHT22;32670;51.464;11.964;2022-12-07T02:50:34;23.40;41.40
46932;DHT22;32670;51.464;11.964;2022-12-07T02:52:59;23.40;41.40
46932;DHT22;32670;51.464;11.964;2022-12-07T02:55:34;23.40;41.40
46932;DHT22;32670;51.464;11.964;2022-12-07T02:58:28;23.40;41.30
46932;DHT22;32670;51.464;11.964;2022-12-07T03:01:11;23.40;41.20
46932;DHT22;32670;51.464;11.964;2022-12-07T03:03:47;23.40;41.30
46932;DHT22;32670;51.464;11.964;2022-12-07T03:06:24;23.30;41.20
46932;DHT22;32670;51.464;11.964;2022-12-07T03:11:50;23.40;41.20
46932;DHT22;32670;51.464;11.964;2022-12-07T03:14:29;23.40;41.20
46932;DHT22;32670;51.464;11.964;2022-12-07T03:17:01;23.40;41.20
46932;DHT22;32670;51.464;11.964;2022-12-07T03:19:29;23.40;41.20
46932;DHT22;32670;51.464;11.964;2022-12-07T03:22:07;23.40;41.20
46932;DHT22;32670;51.464;11.964;2022-12-07T03:24:44;23.40;41.10
46932;DHT22;32670;51.464;11.964;2022-12-07T03:29:54;23.40;41.10
46932;DHT22;32670;51.464;11.964;2022-12-07T03:32:30;23.40;41.10
46932;DHT22;32670;51.464;11.964;2022-12-07T03:35:12;23.40;41.10
46932;DHT22;32670;51.464;11.964;2022-12-07T03:37:45;23.40;41.10
46932;DHT22;32670;51.464;11.964;2022-12-07T03:40:17;23.40;41.00
46932;DHT22;32670;51.464;11.964;2022-12-07T03:42:45;23.40;41.10
46932;DHT22;32670;51.464;11.964;2022-12-07T03:45:11;23.40;41.10
46932;DHT22;32670;51.464;11.964;2022-12-07T03:48:02;23.40;41.10
46932;DHT22;32670;51.464;11.964;2022-12-07T03:53:44;23.40;41.00
46932;DHT22;32670;51.464;11.964;2022-12-07T03:56:12;23.40;41.00
46932;DHT22;32670;51.464;11.964;2022-12-07T03:58:38;23.30;41.60
46932;DHT22;32670;51.464;11.964;2022-12-07T04:01:04;23.40;41.00
46932;DHT22;32670;51.464;11.964;2022-12-07T04:03:30;23.40;41.10
46932;DHT22;32670;51.464;11.964;2022-12-07T04:05:55;23.40;41.00
46932;DHT22;32670;51.464;11.964;2022-12-07T04:08:21;23.40;41.00
46932;DHT22;32670;51.464;11.964;2022-12-07T04:10:46;23.40;41.00
46932;DHT22;32670;51.464;11.964;2022-12-07T04:13:12;23.30;40.90
46932;DHT22;32670;51.464;11.964;2022-12-07T04:15:37;23.40;41.00
46932;DHT22;32670;51.464;11.964;2022-12-07T04:18:03;23.40;41.00
46932;DHT22;32670;51.464;11.964;2022-12-07T04:20:28;23.40;41.00
46932;DHT22;32670;51.464;11.964;2022-12-07T04:22:54;23.30;40.90
46932;DHT22;32670;51.464;11.964;2022-12-07T04:25:19;23.40;41.00
46932;DHT22;32670;51.464;11.964;2022-12-07T04:27:45;23.30;40.80
46932;DHT22;32670;51.464;11.964;2022-12-07T04:30:11;23.30;40.90
46932;DHT22;32670;51.464;11.964;2022-12-07T04:32:36;23.30;40.80
46932;DHT22;32670;51.464;11.964;2022-12-07T04:35:02;23.30;40.80
46932;DHT22;32670;51.464;11.964;2022-12-07T04:37:28;23.40;40.90
46932;DHT22;32670;51.464;11.964;2022-12-07T04:39:53;23.30;40.80
46932;DHT22;32670;51.464;11.964;2022-12-07T04:42:19;23.30;40.80
46932;DHT22;32670;51.464;11.964;2022-12-07T04:44:44;23.30;40.80
46932;DHT22;32670;51.464;11.964;2022-12-07T04:47:10;23.40;40.80
46932;DHT22;32670;51.464;11.964;2022-12-07T04:49:35;23.40;40.80
46932;DHT22;32670;51.464;11.964;2022-12-07T04:52:01;23.40;40.80
46932;DHT22;32670;51.464;11.964;2022-12-07T04:54:26;23.40;40.80
46932;DHT22;32670;51.464;11.964;2022-12-07T04:56:52;23.40;40.80
46932;DHT22;32670;51.464;11.964;2022-12-07T04:59:17;23.40;40.80
46932;DHT22;32670;51.464;11.964;2022-12-07T05:01:43;23.40;40.80
46932;DHT22;32670;51.464;11.964;2022-12-07T05:04:09;23.40;40.80
46932;DHT22;32670;51.464;11.964;2022-12-07T05:06:35;23.40;40.80
46932;DHT22;32670;51.464;11.964;2022-12-07T05:09:01;23.40;41.30
46932;DHT22;32670;51.464;11.964;2022-12-07T05:11:29;23.40;40.70
46932;DHT22;32670;51.464;11.964;2022-12-07T05:14:12;23.40;40.80
46932;DHT22;32670;51.464;11.964;2022-12-07T05:16:38;23.40;40.90
46932;DHT22;32670;51.464;11.964;2022-12-07T05:19:05;23.40;40.90
46932;DHT22;32670;51.464;11.964;2022-12-07T05:21:30;23.40;40.80
46932;DHT22;32670;51.464;11.964;2022-12-07T05:23:56;23.40;40.80
46932;DHT22;32670;51.464;11.964;2022-12-07T05:26:22;23.40;40.80
46932;DHT22;32670;51.464;11.964;2022-12-07T05:28:51;23.40;40.80
46932;DHT22;32670;51.464;11.964;2022-12-07T05:31:17;23.40;40.80
46932;DHT22;32670;51.464;11.964;2022-12-07T05:33:43;23.40;41.40
46932;DHT22;32670;51.464;11.964;2022-12-07T05:36:08;23.40;40.80
46932;DHT22;32670;51.464;11.964;2022-12-07T05:38:34;23.40;40.80
46932;DHT22;32670;51.464;11.964;2022-12-07T05:41:01;23.40;40.80
46932;DHT22;32670;51.464;11.964;2022-12-07T05:43:27;23.40;40.70
46932;DHT22;32670;51.464;11.964;2022-12-07T05:45:52;23.40;40.80
46932;DHT22;32670;51.464;11.964;2022-12-07T05:48:18;23.40;40.70
46932;DHT22;32670;51.464;11.964;2022-12-07T05:50:43;23.40;40.80
46932;DHT22;32670;51.464;11.964;2022-12-07T05:53:09;23.40;40.80
46932;DHT22;32670;51.464;11.964;2022-12-07T05:55:34;23.40;40.70
46932;DHT22;32670;51.464;11.964;2022-12-07T05:58:00;23.40;40.70
46932;DHT22;32670;51.464;11.964;2022-12-07T06:00:44;23.40;40.70
46932;DHT22;32670;51.464;11.964;2022-12-07T06:03:09;23.40;40.70
46932;DHT22;32670;51.464;11.964;2022-12-07T06:05:35;23.40;40.70
46932;DHT22;32670;51.464;11.964;2022-12-07T06:08:00;23.40;40.70
46932;DHT22;32670;51.464;11.964;2022-12-07T06:10:26;23.40;40.70
46932;DHT22;32670;51.464;11.964;2022-12-07T06:12:51;23.40;40.70
46932;DHT22;32670;51.464;11.964;2022-12-07T06:15:17;23.40;40.70
46932;DHT22;32670;51.464;11.964;2022-12-07T06:17:42;23.40;40.70
46932;DHT22;32670;51.464;11.964;2022-12-07T06:20:08;23.40;40.70
46932;DHT22;32670;51.464;11.964;2022-12-07T06:22:33;23.40;40.70
46932;DHT22;32670;51.464;11.964;2022-12-07T06:24:59;23.40;40.70
46932;DHT22;32670;51.464;11.964;2022-12-07T06:27:24;23.40;40.70
46932;DHT22;32670;51.464;11.964;2022-12-07T06:29:50;23.40;40.70
46932;DHT22;32670;51.464;11.964;2022-12-07T06:32:15;23.40;40.70
46932;DHT22;32670;51.464;11.964;2022-12-07T06:34:41;23.40;40.70
46932;DHT22;32670;51.464;11.964;2022-12-07T06:37:07;23.40;40.70
46932;DHT22;32670;51.464;11.964;2022-12-07T06:39:32;23.40;40.60
46932;DHT22;32670;51.464;11.964;2022-12-07T06:41:58;23.40;40.60
46932;DHT22;32670;51.464;11.964;2022-12-07T06:44:24;23.40;40.60
46932;DHT22;32670;51.464;11.964;2022-12-07T06:46:50;23.40;40.70
46932;DHT22;32670;51.464;11.964;2022-12-07T06:49:16;23.40;40.60
46932;DHT22;32670;51.464;11.964;2022-12-07T06:51:42;23.40;40.70
46932;DHT22;32670;51.464;11.964;2022-12-07T06:54:12;23.30;40.70
46932;DHT22;32670;51.464;11.964;2022-12-07T06:56:38;23.40;41.00
46932;DHT22;32670;51.464;11.964;2022-12-07T06:59:05;23.40;41.40
46932;DHT22;32670;51.464;11.964;2022-12-07T07:01:32;23.30;41.10
46932;DHT22;32670;51.464;11.964;2022-12-07T07:03:58;23.40;41.40
46932;DHT22;32670;51.464;11.964;2022-12-07T07:06:23;23.40;40.20
46932;DHT22;32670;51.464;11.964;2022-12-07T07:08:49;23.30;31.50
46932;DHT22;32670;51.464;11.964;2022-12-07T07:11:14;23.00;31.10
46932;DHT22;32670;51.464;11.964;2022-12-07T07:13:40;22.90;36.10
46932;DHT22;32670;51.464;11.964;2022-12-07T07:16:06;23.00;36.50
46932;DHT22;32670;51.464;11.964;2022-12-07T07:18:32;23.00;36.20
46932;DHT22;32670;51.464;11.964;2022-12-07T07:20:57;23.10;36.60
46932;DHT22;32670;51.464;11.964;2022-12-07T07:23:24;23.10;37.00
46932;DHT22;32670;51.464;11.964;2022-12-07T07:25:49;23.20;37.20
46932;DHT22;32670;51.464;11.964;2022-12-07T07:28:16;23.30;37.40
46932;DHT22;32670;51.464;11.964;2022-12-07T07:30:41;23.30;37.60
46932;DHT22;32670;51.464;11.964;2022-12-07T07:33:09;23.40;37.80
46932;DHT22;32670;51.464;11.964;2022-12-07T07:35:35;23.40;38.10
46932;DHT22;32670;51.464;11.964;2022-12-07T07:38:01;23.40;38.10
46932;DHT22;32670;51.464;11.964;2022-12-07T07:40:27;23.40;38.10
46932;DHT22;32670;51.464;11.964;2022-12-07T07:42:55;23.50;38.20
46932;DHT22;32670;51.464;11.964;2022-12-07T07:45:22;23.40;38.20
46932;DHT22;32670;51.464;11.964;2022-12-07T07:47:48;23.50;38.60
46932;DHT22;32670;51.464;11.964;2022-12-07T07:50:14;23.50;38.60
46932;DHT22;32670;51.464;11.964;2022-12-07T07:52:40;23.50;38.90
46932;DHT22;32670;51.464;11.964;2022-12-07T07:55:06;23.50;38.90
46932;DHT22;32670;51.464;11.964;2022-12-07T07:57:34;23.50;39.10
46932;DHT22;32670;51.464;11.964;2022-12-07T07:59:59;23.50;38.70
46932;DHT22;32670;51.464;11.964;2022-12-07T08:02:25;23.50;39.40
46932;DHT22;32670;51.464;11.964;2022-12-07T08:04:50;23.50;39.20
46932;DHT22;32670;51.464;11.964;2022-12-07T08:07:16;23.50;39.50
46932;DHT22;32670;51.464;11.964;2022-12-07T08:09:41;23.50;39.60
46932;DHT22;32670;51.464;11.964;2022-12-07T08:12:07;23.50;39.70
46932;DHT22;32670;51.464;11.964;2022-12-07T08:14:33;23.50;40.20
46932;DHT22;32670;51.464;11.964;2022-12-07T08:16:59;23.50;40.60
46932;DHT22;32670;51.464;11.964;2022-12-07T08:19:25;23.50;39.90
46932;DHT22;32670;51.464;11.964;2022-12-07T08:21:51;23.60;40.50
46932;DHT22;32670;51.464;11.964;2022-12-07T08:24:16;23.50;39.80
46932;DHT22;32670;51.464;11.964;2022-12-07T08:26:42;23.50;40.00
46932;DHT22;32670;51.464;11.964;2022-12-07T08:29:08;23.50;40.00
46932;DHT22;32670;51.464;11.964;2022-12-07T08:31:34;23.50;40.00
46932;DHT22;32670;51.464;11.964;2022-12-07T08:33:59;23.50;40.10
46932;DHT22;32670;51.464;11.964;2022-12-07T08:36:25;23.60;40.30
46932;DHT22;32670;51.464;11.964;2022-12-07T08:38:50;23.50;40.30
46932;DHT22;32670;51.464;11.964;2022-12-07T08:41:16;23.60;40.40
46932;DHT22;32670;51.464;11.964;2022-12-07T08:43:42;23.50;40.60
46932;DHT22;32670;51.464;11.964;2022-12-07T08:46:11;23.60;41.00
46932;DHT22;32670;51.464;11.964;2022-12-07T08:48:43;23.60;41.10
46932;DHT22;32670;51.464;11.964;2022-12-07T08:51:09;23.50;41.00
46932;DHT22;32670;51.464;11.964;2022-12-07T08:53:36;23.60;41.10
46932;DHT22;32670;51.464;11.964;2022-12-07T08:56:03;23.60;40.90
46932;DHT22;32670;51.464;11.964;2022-12-07T08:58:29;23.60;40.60
46932;DHT22;32670;51.464;11.964;2022-12-07T09:00:54;23.60;40.60
46932;DHT22;32670;51.464;11.964;2022-12-07T09:03:20;23.50;40.50
46932;DHT22;32670;51.464;11.964;2022-12-07T09:05:46;23.60;40.50
46932;DHT22;32670;51.464;11.964;2022-12-07T09:08:12;23.50;40.40
46932;DHT22;32670;51.464;11.964;2022-12-07T09:10:38;23.60;40.50
46932;DHT22;32670;51.464;11.964;2022-12-07T09:13:06;23.60;40.50
46932;DHT22;32670;51.464;11.964;2022-12-07T09:15:32;23.50;40.50
46932;DHT22;32670;51.464;11.964;2022-12-07T09:17:58;23.60;40.60
46932;DHT22;32670;51.464;11.964;2022-12-07T09:20:24;23.50;40.50
46932;DHT22;32670;51.464;11.964;2022-12-07T09:22:49;23.50;40.60
46932;DHT22;32670;51.464;11.964;2022-12-07T09:25:14;23.50;40.60
46932;DHT22;32670;51.464;11.964;2022-12-07T09:27:41;23.50;40.60
46932;DHT22;32670;51.464;11.964;2022-12-07T09:30:07;23.60;40.60
46932;DHT22;32670;51.464;11.964;2022-12-07T09:32:33;23.50;40.60
46932;DHT22;32670;51.464;11.964;2022-12-07T09:34:58;23.50;40.60
46932;DHT22;32670;51.464;11.964;2022-12-07T09:37:24;23.50;40.70
46932;DHT22;32670;51.464;11.964;2022-12-07T09:39:49;23.50;40.60
46932;DHT22;32670;51.464;11.964;2022-12-07T09:42:32;23.50;40.60
46932;DHT22;32670;51.464;11.964;2022-12-07T09:44:59;23.50;40.60
46932;DHT22;32670;51.464;11.964;2022-12-07T09:47:25;23.50;40.70
46932;DHT22;32670;51.464;11.964;2022-12-07T09:49:51;23.50;40.70
46932;DHT22;32670;51.464;11.964;2022-12-07T09:52:24;23.50;40.70
46932;DHT22;32670;51.464;11.964;2022-12-07T09:54:50;23.50;40.70
46932;DHT22;32670;51.464;11.964;2022-12-07T09:57:17;23.50;40.70
46932;DHT22;32670;51.464;11.964;2022-12-07T09:59:43;23.50;40.70
46932;DHT22;32670;51.464;11.964;2022-12-07T10:02:34;23.50;40.80
46932;DHT22;32670;51.464;11.964;2022-12-07T10:05:01;23.50;40.80
46932;DHT22;32670;51.464;11.964;2022-12-07T10:07:26;23.50;40.80
46932;DHT22;32670;51.464;11.964;2022-12-07T10:09:52;23.50;40.80
46932;DHT22;32670;51.464;11.964;2022-12-07T10:12:18;23.50;40.80
46932;DHT22;32670;51.464;11.964;2022-12-07T10:15:00;23.50;40.80
46932;DHT22;32670;51.464;11.964;2022-12-07T10:17:37;23.40;40.70
46932;DHT22;32670;51.464;11.964;2022-12-07T10:22:37;23.50;40.90
46932;DHT22;32670;51.464;11.964;2022-12-07T10:25:17;23.50;40.90
46932;DHT22;32670;51.464;11.964;2022-12-07T10:27:43;23.40;40.80
46932;DHT22;32670;51.464;11.964;2022-12-07T10:30:14;23.40;40.80
46932;DHT22;32670;51.464;11.964;2022-12-07T10:32:40;23.40;40.80
46932;DHT22;32670;51.464;11.964;2022-12-07T10:35:29;23.50;40.90
46932;DHT22;32670;51.464;11.964;2022-12-07T10:37:57;23.40;40.80
46932;DHT22;32670;51.464;11.964;2022-12-07T10:40:35;23.40;40.90
46932;DHT22;32670;51.464;11.964;2022-12-07T10:45:27;23.40;40.90
46932;DHT22;32670;51.464;11.964;2022-12-07T10:48:13;23.40;40.90
46932;DHT22;32670;51.464;11.964;2022-12-07T11:01:44;23.20;34.60
46932;DHT22;32670;51.464;11.964;2022-12-07T11:07:11;23.10;39.20
46932;DHT22;32670;51.464;11.964;2022-12-07T11:10:05;23.10;38.00
46932;DHT22;32670;51.464;11.964;2022-12-07T11:16:13;23.20;39.00
46932;DHT22;32670;51.464;11.964;2022-12-07T11:18:56;23.30;39.20
46932;DHT22;32670;51.464;11.964;2022-12-07T11:21:48;23.30;39.60
46932;DHT22;32670;51.464;11.964;2022-12-07T11:24:19;23.30;40.40
46932;DHT22;32670;51.464;11.964;2022-12-07T11:27:10;23.40;40.60
46932;DHT22;32670;51.464;11.964;2022-12-07T11:32:49;23.40;41.50
46932;DHT22;32670;51.464;11.964;2022-12-07T11:38:03;23.50;42.30
46932;DHT22;32670;51.464;11.964;2022-12-07T11:40:36;23.50;42.30
46932;DHT22;32670;51.464;11.964;2022-12-07T11:43:13;23.50;42.10
46932;DHT22;32670;51.464;11.964;2022-12-07T11:45:43;23.50;42.40
46932;DHT22;32670;51.464;11.964;2022-12-07T11:48:27;23.50;42.50
46932;DHT22;32670;51.464;11.964;2022-12-07T11:50:57;23.60;42.70
46932;DHT22;32670;51.464;11.964;2022-12-07T11:53:38;23.60;43.10
46932;DHT22;32670;51.464;11.964;2022-12-07T11:56:14;23.50;43.30
46932;DHT22;32670;51.464;11.964;2022-12-07T12:04:14;23.60;43.00
46932;DHT22;32670;51.464;11.964;2022-12-07T12:06:44;23.60;43.10
46932;DHT22;32670;51.464;11.964;2022-12-07T12:09:25;23.60;43.30
46932;DHT22;32670;51.464;11.964;2022-12-07T12:23:19;23.60;43.00
46932;DHT22;32670;51.464;11.964;2022-12-07T12:25:48;23.60;43.10
46932;DHT22;32670;51.464;11.964;2022-12-07T12:28:27;23.60;43.10
46932;DHT22;32670;51.464;11.964;2022-12-07T12:33:33;23.60;43.30
46932;DHT22;32670;51.464;11.964;2022-12-07T12:50:15;23.70;43.40
46932;DHT22;32670;51.464;11.964;2022-12-07T12:57:36;23.70;43.50
46932;DHT22;32670;51.464;11.964;2022-12-07T13:00:21;23.60;43.50
46932;DHT22;32670;51.464;11.964;2022-12-07T13:02:55;23.70;43.50
46932;DHT22;32670;51.464;11.964;2022-12-07T13:05:22;23.60;43.50
46932;DHT22;32670;51.464;11.964;2022-12-07T13:07:55;23.70;43.50
46932;DHT22;32670;51.464;11.964;2022-12-07T13:10:33;23.70;43.50
46932;DHT22;32670;51.464;11.964;2022-12-07T13:15:40;23.70;43.40
46932;DHT22;32670;51.464;11.964;2022-12-07T13:20:56;23.70;43.70
46932;DHT22;32670;51.464;11.964;2022-12-07T13:26:22;23.70;43.10
46932;DHT22;32670;51.464;11.964;2022-12-07T13:28:54;23.70;43.10
46932;DHT22;32670;51.464;11.964;2022-12-07T13:31:40;23.70;42.90
46932;DHT22;32670;51.464;11.964;2022-12-07T13:34:32;23.70;43.20
46932;DHT22;32670;51.464;11.964;2022-12-07T13:37:44;23.70;42.90
46932;DHT22;32670;51.464;11.964;2022-12-07T13:40:09;23.70;42.90
46932;DHT22;32670;51.464;11.964;2022-12-07T13:42:37;23.70;42.80
46932;DHT22;32670;51.464;11.964;2022-12-07T13:45:24;23.70;42.80
46932;DHT22;32670;51.464;11.964;2022-12-07T13:48:34;23.70;42.90
46932;DHT22;32670;51.464;11.964;2022-12-07T13:51:02;23.70;42.80
46932;DHT22;32670;51.464;11.964;2022-12-07T13:53:28;23.70;42.90
46932;DHT22;32670;51.464;11.964;2022-12-07T13:55:56;23.70;43.00
46932;DHT22;32670;51.464;11.964;2022-12-07T13:58:23;23.70;43.20
46932;DHT22;32670;51.464;11.964;2022-12-07T14:00:49;23.70;43.00
46932;DHT22;32670;51.464;11.964;2022-12-07T14:05:41;23.70;43.10
46932;DHT22;32670;51.464;11.964;2022-12-07T14:11:01;23.70;43.40
46932;DHT22;32670;51.464;11.964;2022-12-07T14:13:37;23.60;43.30
46932;DHT22;32670;51.464;11.964;2022-12-07T14:16:36;23.60;43.40
46932;DHT22;32670;51.464;11.964;2022-12-07T14:19:05;23.60;42.80
46932;DHT22;32670;51.464;11.964;2022-12-07T14:21:32;23.60;42.20
46932;DHT22;32670;51.464;11.964;2022-12-07T14:24:11;23.60;42.50
46932;DHT22;32670;51.464;11.964;2022-12-07T14:26:38;23.60;42.60
46932;DHT22;32670;51.464;11.964;2022-12-07T14:29:21;23.60;42.70
46932;DHT22;32670;51.464;11.964;2022-12-07T14:31:47;23.60;43.50
46932;DHT22;32670;51.464;11.964;2022-12-07T14:34:13;23.60;43.50
46932;DHT22;32670;51.464;11.964;2022-12-07T14:36:38;23.60;43.20
46932;DHT22;32670;51.464;11.964;2022-12-07T14:39:04;23.60;42.90
46932;DHT22;32670;51.464;11.964;2022-12-07T14:41:29;23.60;42.70
46932;DHT22;32670;51.464;11.964;2022-12-07T14:44:13;23.60;42.90
46932;DHT22;32670;51.464;11.964;2022-12-07T14:46:39;23.60;43.10
46932;DHT22;32670;51.464;11.964;2022-12-07T14:49:04;23.60;43.20
46932;DHT22;32670;51.464;11.964;2022-12-07T14:51:31;23.60;43.30
46932;DHT22;32670;51.464;11.964;2022-12-07T14:53:56;23.60;43.60
46932;DHT22;32670;51.464;11.964;2022-12-07T14:56:22;23.60;43.70
46932;DHT22;32670;51.464;11.964;2022-12-07T14:58:47;23.60;44.00
46932;DHT22;32670;51.464;11.964;2022-12-07T15:01:13;23.60;43.80
46932;DHT22;32670;51.464;11.964;2022-12-07T15:03:39;23.60;44.00
46932;DHT22;32670;51.464;11.964;2022-12-07T15:06:05;23.60;44.00
46932;DHT22;32670;51.464;11.964;2022-12-07T15:08:32;23.50;44.00
46932;DHT22;32670;51.464;11.964;2022-12-07T15:10:57;23.60;43.70
46932;DHT22;32670;51.464;11.964;2022-12-07T15:13:23;23.60;44.10
46932;DHT22;32670;51.464;11.964;2022-12-07T15:16:10;23.60;44.00
46932;DHT22;32670;51.464;11.964;2022-12-07T15:18:37;23.60;43.90
46932;DHT22;32670;51.464;11.964;2022-12-07T15:21:03;23.60;44.00
46932;DHT22;32670;51.464;11.964;2022-12-07T15:23:28;23.60;44.00
46932;DHT22;32670;51.464;11.964;2022-12-07T15:25:54;23.50;44.10
46932;DHT22;32670;51.464;11.964;2022-12-07T15:28:20;23.60;44.00
46932;DHT22;32670;51.464;11.964;2022-12-07T15:30:45;23.60;44.20
46932;DHT22;32670;51.464;11.964;2022-12-07T15:33:12;23.60;44.30
46932;DHT22;32670;51.464;11.964;2022-12-07T15:35:42;23.60;43.70
46932;DHT22;32670;51.464;11.964;2022-12-07T15:38:07;23.60;43.50
46932;DHT22;32670;51.464;11.964;2022-12-07T15:40:34;23.50;43.20
46932;DHT22;32670;51.464;11.964;2022-12-07T15:43:00;23.50;43.00
46932;DHT22;32670;51.464;11.964;2022-12-07T15:45:26;23.60;43.10
46932;DHT22;32670;51.464;11.964;2022-12-07T15:47:51;23.60;43.40
46932;DHT22;32670;51.464;11.964;2022-12-07T15:50:17;23.60;43.70
46932;DHT22;32670;51.464;11.964;2022-12-07T15:52:42;23.50;43.80
46932;DHT22;32670;51.464;11.964;2022-12-07T15:55:09;23.60;44.10
46932;DHT22;32670;51.464;11.964;2022-12-07T15:57:36;23.60;44.20
46932;DHT22;32670;51.464;11.964;2022-12-07T16:00:06;23.60;44.30
46932;DHT22;32670;51.464;11.964;2022-12-07T16:02:32;23.60;44.80
46932;DHT22;32670;51.464;11.964;2022-12-07T16:04:58;23.60;44.20
46932;DHT22;32670;51.464;11.964;2022-12-07T16:07:23;23.60;44.20
46932;DHT22;32670;51.464;11.964;2022-12-07T16:09:49;23.60;44.20
46932;DHT22;32670;51.464;11.964;2022-12-07T16:12:17;23.60;44.20
46932;DHT22;32670;51.464;11.964;2022-12-07T16:14:43;23.60;44.30
46932;DHT22;32670;51.464;11.964;2022-12-07T16:17:09;23.50;44.20
46932;DHT22;32670;51.464;11.964;2022-12-07T16:19:35;23.50;44.20
46932;DHT22;32670;51.464;11.964;2022-12-07T16:22:01;23.50;44.40
46932;DHT22;32670;51.464;11.964;2022-12-07T16:24:27;23.60;43.70
46932;DHT22;32670;51.464;11.964;2022-12-07T16:26:54;23.50;43.50
46932;DHT22;32670;51.464;11.964;2022-12-07T16:29:21;23.50;43.40
46932;DHT22;32670;51.464;11.964;2022-12-07T16:31:47;23.60;43.40
46932;DHT22;32670;51.464;11.964;2022-12-07T16:34:12;23.50;43.30
46932;DHT22;32670;51.464;11.964;2022-12-07T16:36:38;23.50;43.30
46932;DHT22;32670;51.464;11.964;2022-12-07T16:39:04;23.50;43.40
46932;DHT22;32670;51.464;11.964;2022-12-07T16:41:31;23.50;43.60
46932;DHT22;32670;51.464;11.964;2022-12-07T16:43:56;23.50;43.70
46932;DHT22;32670;51.464;11.964;2022-12-07T16:46:22;23.50;43.60
46932;DHT22;32670;51.464;11.964;2022-12-07T16:48:47;23.50;43.40
46932;DHT22;32670;51.464;11.964;2022-12-07T16:51:13;23.60;43.50
46932;DHT22;32670;51.464;11.964;2022-12-07T16:53:41;23.60;43.50
46932;DHT22;32670;51.464;11.964;2022-12-07T16:56:11;23.60;43.70
46932;DHT22;32670;51.464;11.964;2022-12-07T16:58:37;23.50;44.00
46932;DHT22;32670;51.464;11.964;2022-12-07T17:01:16;23.60;44.70
46932;DHT22;32670;51.464;11.964;2022-12-07T17:03:43;23.60;45.30
46932;DHT22;32670;51.464;11.964;2022-12-07T17:06:20;23.60;45.40
46932;DHT22;32670;51.464;11.964;2022-12-07T17:08:46;23.60;46.20
46932;DHT22;32670;51.464;11.964;2022-12-07T17:11:14;23.60;45.80